sensor_id;sensor_type;location;lat;lon;timestamp;temperature;humidity
30174;DHT22;16985;50.814;8.530;2023-06-10T00:01:47;17.40;88.50
30174;DHT22;16985;50.814;8.530;2023-06-10T00:04:15;17.40;88.60
30174;DHT22;16985;50.814;8.530;2023-06-10T00:06:45;17.30;89.20
30174;DHT22;16985;50.814;8.530;2023-06-10T00:09:15;17.20;89.70
30174;DHT22;16985;50.814;8.530;2023-06-10T00:11:42;17.20;89.60
30174;DHT22;16985;50.814;8.530;2023-06-10T00:14:10;17.30;90.20
30174;DHT22;16985;50.814;8.530;2023-06-10T00:16:36;17.10;90.10
30174;DHT22;16985;50.814;8.530;2023-06-10T00:19:03;17.00;90.40
30174;DHT22;16985;50.814;8.530;2023-06-10T00:21:33;17.00;90.60
30174;DHT22;16985;50.814;8.530;2023-06-10T00:24:06;17.00;90.60
30174;DHT22;16985;50.814;8.530;2023-06-10T00:26:37;16.90;90.90
30174;DHT22;16985;50.814;8.530;2023-06-10T00:29:04;16.90;91.10
30174;DHT22;16985;50.814;8.530;2023-06-10T00:31:31;16.80;91.10
30174;DHT22;16985;50.814;8.530;2023-06-10T00:33:58;16.80;91.70
30174;DHT22;16985;50.814;8.530;2023-06-10T00:36:24;16.80;91.40
30174;DHT22;16985;50.814;8.530;2023-06-10T00:38:50;16.70;91.50
30174;DHT22;16985;50.814;8.530;2023-06-10T00:41:16;16.70;92.30
30174;DHT22;16985;50.814;8.530;2023-06-10T00:43:43;16.60;92.10
30174;DHT22;16985;50.814;8.530;2023-06-10T00:46:10;16.60;92.00
30174;DHT22;16985;50.814;8.530;2023-06-10T00:48:38;16.60;92.50
30174;DHT22;16985;50.814;8.530;2023-06-10T00:51:08;16.50;92.40
30174;DHT22;16985;50.814;8.530;2023-06-10T00:53:39;16.50;92.60
30174;DHT22;16985;50.814;8.530;2023-06-10T00:56:07;16.50;92.60
30174;DHT22;16985;50.814;8.530;2023-06-10T00:58:35;16.40;92.70
30174;DHT22;16985;50.814;8.530;2023-06-10T01:01:01;16.40;92.50
30174;DHT22;16985;50.814;8.530;2023-06-10T01:03:31;16.40;93.00
30174;DHT22;16985;50.814;8.530;2023-06-10T01:09:06;16.30;93.30
30174;DHT22;16985;50.814;8.530;2023-06-10T01:12:13;16.20;93.40
30174;DHT22;16985;50.814;8.530;2023-06-10T01:14:44;16.20;93.70
30174;DHT22;16985;50.814;8.530;2023-06-10T01:17:11;16.10;94.10
30174;DHT22;16985;50.814;8.530;2023-06-10T01:19:38;16.10;94.30
30174;DHT22;16985;50.814;8.530;2023-06-10T01:22:04;16.00;94.60
30174;DHT22;16985;50.814;8.530;2023-06-10T01:24:33;16.00;94.40
30174;DHT22;16985;50.814;8.530;2023-06-10T01:27:07;16.00;94.50
30174;DHT22;16985;50.814;8.530;2023-06-10T01:29:46;15.90;95.00
30174;DHT22;16985;50.814;8.530;2023-06-10T01:32:33;15.90;94.80
30174;DHT22;16985;50.814;8.530;2023-06-10T01:35:02;15.90;95.40
30174;DHT22;16985;50.814;8.530;2023-06-10T01:37:28;15.90;95.80
30174;DHT22;16985;50.814;8.530;2023-06-10T01:39:57;15.80;95.30
30174;DHT22;16985;50.814;8.530;2023-06-10T01:42:25;15.80;95.50
30174;DHT22;16985;50.814;8.530;2023-06-10T01:44:51;15.70;95.90
30174;DHT22;16985;50.814;8.530;2023-06-10T01:47:20;15.70;95.80
30174;DHT22;16985;50.814;8.530;2023-06-10T01:49:46;15.70;95.60
30174;DHT22;16985;50.814;8.530;2023-06-10T01:52:12;15.60;96.30
30174;DHT22;16985;50.814;8.530;2023-06-10T01:54:38;15.60;96.70
30174;DHT22;16985;50.814;8.530;2023-06-10T01:57:05;15.50;96.60
30174;DHT22;16985;50.814;8.530;2023-06-10T01:59:31;15.50;97.30
30174;DHT22;16985;50.814;8.530;2023-06-10T02:01:57;15.50;96.90
30174;DHT22;16985;50.814;8.530;2023-06-10T02:04:23;15.50;97.60
30174;DHT22;16985;50.814;8.530;2023-06-10T02:06:49;15.50;98.00
30174;DHT22;16985;50.814;8.530;2023-06-10T02:09:16;15.40;97.50
30174;DHT22;16985;50.814;8.530;2023-06-10T02:11:43;15.40;97.60
30174;DHT22;16985;50.814;8.530;2023-06-10T02:14:09;15.30;97.70
30174;DHT22;16985;50.814;8.530;2023-06-10T02:16:37;15.30;98.80
30174;DHT22;16985;50.814;8.530;2023-06-10T02:19:05;15.30;98.50
30174;DHT22;16985;50.814;8.530;2023-06-10T02:21:32;15.20;98.30
30174;DHT22;16985;50.814;8.530;2023-06-10T02:23:59;15.20;98.40
30174;DHT22;16985;50.814;8.530;2023-06-10T02:26:26;15.20;98.10
30174;DHT22;16985;50.814;8.530;2023-06-10T02:28:52;15.10;98.90
30174;DHT22;16985;50.814;8.530;2023-06-10T02:31:18;15.30;98.70
30174;DHT22;16985;50.814;8.530;2023-06-10T02:33:47;15.10;99.10
30174;DHT22;16985;50.814;8.530;2023-06-10T02:36:13;15.10;99.20
30174;DHT22;16985;50.814;8.530;2023-06-10T02:38:41;15.00;99.60
30174;DHT22;16985;50.814;8.530;2023-06-10T02:41:08;15.00;99.60
30174;DHT22;16985;50.814;8.530;2023-06-10T02:43:34;15.00;99.90
30174;DHT22;16985;50.814;8.530;2023-06-10T02:46:00;15.00;99.90
30174;DHT22;16985;50.814;8.530;2023-06-10T02:48:27;14.90;99.80
30174;DHT22;16985;50.814;8.530;2023-06-10T02:50:54;14.90;99.60
30174;DHT22;16985;50.814;8.530;2023-06-10T02:53:31;14.90;99.90
30174;DHT22;16985;50.814;8.530;2023-06-10T02:56:04;14.90;99.90
30174;DHT22;16985;50.814;8.530;2023-06-10T02:58:30;14.90;99.90
30174;DHT22;16985;50.814;8.530;2023-06-10T03:00:56;14.80;99.90
30174;DHT22;16985;50.814;8.530;2023-06-10T03:03:23;14.80;99.90
30174;DHT22;16985;50.814;8.530;2023-06-10T03:05:58;14.80;99.90
30174;DHT22;16985;50.814;8.530;2023-06-10T03:08:25;14.80;99.90
30174;DHT22;16985;50.814;8.530;2023-06-10T03:10:51;14.70;99.90
30174;DHT22;16985;50.814;8.530;2023-06-10T03:13:18;14.70;99.90
30174;DHT22;16985;50.814;8.530;2023-06-10T03:15:44;14.70;99.90
30174;DHT22;16985;50.814;8.530;2023-06-10T03:18:14;14.80;99.90
30174;DHT22;16985;50.814;8.530;2023-06-10T03:20:40;14.50;99.90
30174;DHT22;16985;50.814;8.530;2023-06-10T03:23:09;14.50;99.90
30174;DHT22;16985;50.814;8.530;2023-06-10T03:25:35;14.50;99.90
30174;DHT22;16985;50.814;8.530;2023-06-10T03:28:01;14.50;99.90
30174;DHT22;16985;50.814;8.530;2023-06-10T03:30:28;14.40;99.90
30174;DHT22;16985;50.814;8.530;2023-06-10T03:32:54;14.40;99.90
30174;DHT22;16985;50.814;8.530;2023-06-10T03:35:23;14.40;99.90
30174;DHT22;16985;50.814;8.530;2023-06-10T03:37:49;14.40;99.90
30174;DHT22;16985;50.814;8.530;2023-06-10T03:40:15;14.40;99.90
30174;DHT22;16985;50.814;8.530;2023-06-10T03:42:44;14.30;99.90
30174;DHT22;16985;50.814;8.530;2023-06-10T03:45:11;14.30;99.90
30174;DHT22;16985;50.814;8.530;2023-06-10T03:47:37;14.50;99.90
30174;DHT22;16985;50.814;8.530;2023-06-10T03:50:07;14.30;99.90
30174;DHT22;16985;50.814;8.530;2023-06-10T03:52:35;14.30;99.90
30174;DHT22;16985;50.814;8.530;2023-06-10T03:55:02;14.30;99.90
30174;DHT22;16985;50.814;8.530;2023-06-10T03:57:30;14.30;99.90
30174;DHT22;16985;50.814;8.530;2023-06-10T03:59:55;14.30;99.90
30174;DHT22;16985;50.814;8.530;2023-06-10T04:02:22;14.30;99.90
30174;DHT22;16985;50.814;8.530;2023-06-10T04:04:48;14.30;99.90
30174;DHT22;16985;50.814;8.530;2023-06-10T04:07:14;14.30;99.90
30174;DHT22;16985;50.814;8.530;2023-06-10T04:09:40;14.30;99.90
30174;DHT22;16985;50.814;8.530;2023-06-10T04:12:06;14.30;99.90
30174;DHT22;16985;50.814;8.530;2023-06-10T04:14:34;14.30;99.90
30174;DHT22;16985;50.814;8.530;2023-06-10T04:17:04;14.30;99.90
30174;DHT22;16985;50.814;8.530;2023-06-10T04:19:32;14.40;99.90
30174;DHT22;16985;50.814;8.530;2023-06-10T04:22:00;14.30;99.90
30174;DHT22;16985;50.814;8.530;2023-06-10T04:24:28;14.30;99.90
30174;DHT22;16985;50.814;8.530;2023-06-10T04:26:54;14.40;99.90
30174;DHT22;16985;50.814;8.530;2023-06-10T04:29:20;14.40;99.90
30174;DHT22;16985;50.814;8.530;2023-06-10T04:31:46;14.50;99.90
30174;DHT22;16985;50.814;8.530;2023-06-10T04:34:13;14.50;99.90
30174;DHT22;16985;50.814;8.530;2023-06-10T04:36:39;14.50;99.90
30174;DHT22;16985;50.814;8.530;2023-06-10T04:39:05;14.50;99.90
30174;DHT22;16985;50.814;8.530;2023-06-10T04:41:32;14.50;99.90
30174;DHT22;16985;50.814;8.530;2023-06-10T04:43:57;14.50;99.90
30174;DHT22;16985;50.814;8.530;2023-06-10T04:46:24;14.50;99.90
30174;DHT22;16985;50.814;8.530;2023-06-10T04:48:50;14.50;99.90
30174;DHT22;16985;50.814;8.530;2023-06-10T04:51:16;14.50;99.90
30174;DHT22;16985;50.814;8.530;2023-06-10T04:53:42;14.50;99.90
30174;DHT22;16985;50.814;8.530;2023-06-10T04:56:08;14.50;99.90
30174;DHT22;16985;50.814;8.530;2023-06-10T04:58:34;14.60;99.90
30174;DHT22;16985;50.814;8.530;2023-06-10T05:01:00;14.50;99.90
30174;DHT22;16985;50.814;8.530;2023-06-10T05:03:27;14.70;99.90
30174;DHT22;16985;50.814;8.530;2023-06-10T05:05:53;14.70;99.90
30174;DHT22;16985;50.814;8.530;2023-06-10T05:08:19;14.70;99.90
30174;DHT22;16985;50.814;8.530;2023-06-10T05:10:45;14.60;99.90
30174;DHT22;16985;50.814;8.530;2023-06-10T05:13:11;14.80;99.90
30174;DHT22;16985;50.814;8.530;2023-06-10T05:15:37;14.80;99.90
30174;DHT22;16985;50.814;8.530;2023-06-10T05:18:06;14.80;99.90
30174;DHT22;16985;50.814;8.530;2023-06-10T05:20:32;14.80;99.90
30174;DHT22;16985;50.814;8.530;2023-06-10T05:22:57;14.90;99.90
30174;DHT22;16985;50.814;8.530;2023-06-10T05:25:25;14.90;99.90
30174;DHT22;16985;50.814;8.530;2023-06-10T05:27:51;14.90;99.90
30174;DHT22;16985;50.814;8.530;2023-06-10T05:30:17;15.00;99.90
30174;DHT22;16985;50.814;8.530;2023-06-10T05:32:44;15.00;99.90
30174;DHT22;16985;50.814;8.530;2023-06-10T05:35:10;15.10;99.90
30174;DHT22;16985;50.814;8.530;2023-06-10T05:37:35;15.20;99.90
30174;DHT22;16985;50.814;8.530;2023-06-10T05:40:02;15.20;99.90
30174;DHT22;16985;50.814;8.530;2023-06-10T05:42:30;15.20;99.90
30174;DHT22;16985;50.814;8.530;2023-06-10T05:44:55;15.20;99.90
30174;DHT22;16985;50.814;8.530;2023-06-10T05:47:21;15.30;99.90
30174;DHT22;16985;50.814;8.530;2023-06-10T05:49:47;15.30;99.90
30174;DHT22;16985;50.814;8.530;2023-06-10T05:52:15;15.40;99.90
30174;DHT22;16985;50.814;8.530;2023-06-10T05:54:41;15.50;99.90
30174;DHT22;16985;50.814;8.530;2023-06-10T05:57:07;15.50;99.90
30174;DHT22;16985;50.814;8.530;2023-06-10T05:59:32;15.60;99.90
30174;DHT22;16985;50.814;8.530;2023-06-10T06:01:58;15.70;99.90
30174;DHT22;16985;50.814;8.530;2023-06-10T06:04:24;15.80;99.90
30174;DHT22;16985;50.814;8.530;2023-06-10T06:06:50;15.80;99.90
30174;DHT22;16985;50.814;8.530;2023-06-10T06:09:16;15.90;99.90
30174;DHT22;16985;50.814;8.530;2023-06-10T06:11:44;15.90;99.90
30174;DHT22;16985;50.814;8.530;2023-06-10T06:14:10;16.10;99.90
30174;DHT22;16985;50.814;8.530;2023-06-10T06:16:38;16.30;99.90
30174;DHT22;16985;50.814;8.530;2023-06-10T06:19:04;16.20;99.90
30174;DHT22;16985;50.814;8.530;2023-06-10T06:21:30;16.40;99.90
30174;DHT22;16985;50.814;8.530;2023-06-10T06:23:55;16.40;99.90
30174;DHT22;16985;50.814;8.530;2023-06-10T06:26:23;16.50;99.90
30174;DHT22;16985;50.814;8.530;2023-06-10T06:28:49;16.60;99.90
30174;DHT22;16985;50.814;8.530;2023-06-10T06:31:15;16.60;99.90
30174;DHT22;16985;50.814;8.530;2023-06-10T06:33:41;16.80;99.90
30174;DHT22;16985;50.814;8.530;2023-06-10T06:36:06;16.80;99.90
30174;DHT22;16985;50.814;8.530;2023-06-10T06:38:32;16.90;99.90
30174;DHT22;16985;50.814;8.530;2023-06-10T06:40:59;17.00;99.90
30174;DHT22;16985;50.814;8.530;2023-06-10T06:43:29;17.10;99.90
30174;DHT22;16985;50.814;8.530;2023-06-10T06:46:14;17.20;99.90
30174;DHT22;16985;50.814;8.530;2023-06-10T06:48:41;17.30;99.90
30174;DHT22;16985;50.814;8.530;2023-06-10T06:51:07;17.30;99.90
30174;DHT22;16985;50.814;8.530;2023-06-10T06:53:32;17.40;99.90
30174;DHT22;16985;50.814;8.530;2023-06-10T06:56:00;17.50;99.60
30174;DHT22;16985;50.814;8.530;2023-06-10T06:58:26;17.60;99.20
30174;DHT22;16985;50.814;8.530;2023-06-10T07:00:52;17.70;98.20
30174;DHT22;16985;50.814;8.530;2023-06-10T07:03:20;17.80;98.30
30174;DHT22;16985;50.814;8.530;2023-06-10T07:05:45;17.80;98.20
30174;DHT22;16985;50.814;8.530;2023-06-10T07:08:11;18.00;98.10
30174;DHT22;16985;50.814;8.530;2023-06-10T07:10:37;17.90;97.20
30174;DHT22;16985;50.814;8.530;2023-06-10T07:13:03;18.20;96.80
30174;DHT22;16985;50.814;8.530;2023-06-10T07:15:29;18.20;96.10
30174;DHT22;16985;50.814;8.530;2023-06-10T07:17:57;18.50;95.70
30174;DHT22;16985;50.814;8.530;2023-06-10T07:20:23;18.50;95.30
30174;DHT22;16985;50.814;8.530;2023-06-10T07:22:48;18.50;94.80
30174;DHT22;16985;50.814;8.530;2023-06-10T07:25:14;18.60;94.20
30174;DHT22;16985;50.814;8.530;2023-06-10T07:27:41;18.70;93.80
30174;DHT22;16985;50.814;8.530;2023-06-10T07:30:07;18.80;93.40
30174;DHT22;16985;50.814;8.530;2023-06-10T07:32:34;18.90;93.00
30174;DHT22;16985;50.814;8.530;2023-06-10T07:35:00;19.00;92.50
30174;DHT22;16985;50.814;8.530;2023-06-10T07:37:25;19.10;92.30
30174;DHT22;16985;50.814;8.530;2023-06-10T07:39:51;19.10;92.10
30174;DHT22;16985;50.814;8.530;2023-06-10T07:42:18;19.30;91.60
30174;DHT22;16985;50.814;8.530;2023-06-10T07:44:43;19.40;91.30
30174;DHT22;16985;50.814;8.530;2023-06-10T07:47:09;19.50;91.40
30174;DHT22;16985;50.814;8.530;2023-06-10T07:49:35;19.60;91.30
30174;DHT22;16985;50.814;8.530;2023-06-10T07:52:01;19.70;91.00
30174;DHT22;16985;50.814;8.530;2023-06-10T07:54:26;19.70;90.50
30174;DHT22;16985;50.814;8.530;2023-06-10T07:56:55;19.80;90.20
30174;DHT22;16985;50.814;8.530;2023-06-10T07:59:21;20.00;89.80
30174;DHT22;16985;50.814;8.530;2023-06-10T08:01:49;20.00;89.00
30174;DHT22;16985;50.814;8.530;2023-06-10T08:04:15;20.20;88.40
30174;DHT22;16985;50.814;8.530;2023-06-10T08:06:40;20.30;87.90
30174;DHT22;16985;50.814;8.530;2023-06-10T08:09:06;20.50;88.20
30174;DHT22;16985;50.814;8.530;2023-06-10T08:11:32;20.60;87.50
30174;DHT22;16985;50.814;8.530;2023-06-10T08:14:01;20.70;87.00
30174;DHT22;16985;50.814;8.530;2023-06-10T08:16:27;20.80;86.00
30174;DHT22;16985;50.814;8.530;2023-06-10T08:18:53;20.80;85.40
30174;DHT22;16985;50.814;8.530;2023-06-10T08:21:19;21.00;84.80
30174;DHT22;16985;50.814;8.530;2023-06-10T08:23:45;21.10;84.70
30174;DHT22;16985;50.814;8.530;2023-06-10T08:26:11;21.20;84.40
30174;DHT22;16985;50.814;8.530;2023-06-10T08:28:37;21.30;83.80
30174;DHT22;16985;50.814;8.530;2023-06-10T08:31:02;21.40;83.50
30174;DHT22;16985;50.814;8.530;2023-06-10T08:33:28;21.50;83.30
30174;DHT22;16985;50.814;8.530;2023-06-10T08:35:54;21.60;83.00
30174;DHT22;16985;50.814;8.530;2023-06-10T08:38:20;21.70;82.70
30174;DHT22;16985;50.814;8.530;2023-06-10T08:40:45;21.80;82.20
30174;DHT22;16985;50.814;8.530;2023-06-10T08:43:26;21.90;81.90
30174;DHT22;16985;50.814;8.530;2023-06-10T08:46:10;22.00;81.50
30174;DHT22;16985;50.814;8.530;2023-06-10T08:48:39;22.20;81.30
30174;DHT22;16985;50.814;8.530;2023-06-10T08:51:11;22.30;80.90
30174;DHT22;16985;50.814;8.530;2023-06-10T08:53:44;22.40;80.50
30174;DHT22;16985;50.814;8.530;2023-06-10T08:56:14;22.60;80.20
30174;DHT22;16985;50.814;8.530;2023-06-10T08:58:41;22.60;79.40
30174;DHT22;16985;50.814;8.530;2023-06-10T09:01:08;22.70;79.50
30174;DHT22;16985;50.814;8.530;2023-06-10T09:03:37;23.00;79.30
30174;DHT22;16985;50.814;8.530;2023-06-10T09:06:04;22.90;78.70
30174;DHT22;16985;50.814;8.530;2023-06-10T09:08:31;23.10;78.20
30174;DHT22;16985;50.814;8.530;2023-06-10T09:10:57;23.20;77.80
30174;DHT22;16985;50.814;8.530;2023-06-10T09:13:23;23.30;77.20
30174;DHT22;16985;50.814;8.530;2023-06-10T09:15:49;23.40;77.00
30174;DHT22;16985;50.814;8.530;2023-06-10T09:18:16;23.60;77.00
30174;DHT22;16985;50.814;8.530;2023-06-10T09:20:43;23.70;76.60
30174;DHT22;16985;50.814;8.530;2023-06-10T09:23:18;23.80;76.30
30174;DHT22;16985;50.814;8.530;2023-06-10T09:25:44;23.90;75.30
30174;DHT22;16985;50.814;8.530;2023-06-10T09:28:14;24.00;75.10
30174;DHT22;16985;50.814;8.530;2023-06-10T09:30:41;24.20;74.70
30174;DHT22;16985;50.814;8.530;2023-06-10T09:33:11;24.20;74.30
30174;DHT22;16985;50.814;8.530;2023-06-10T09:35:45;24.40;74.10
30174;DHT22;16985;50.814;8.530;2023-06-10T09:38:21;24.50;73.80
30174;DHT22;16985;50.814;8.530;2023-06-10T09:40:57;24.60;73.30
30174;DHT22;16985;50.814;8.530;2023-06-10T09:43:44;24.70;73.10
30174;DHT22;16985;50.814;8.530;2023-06-10T09:46:16;24.90;72.80
30174;DHT22;16985;50.814;8.530;2023-06-10T09:48:46;25.10;72.30
30174;DHT22;16985;50.814;8.530;2023-06-10T09:51:14;25.00;70.90
30174;DHT22;16985;50.814;8.530;2023-06-10T09:53:42;25.20;70.20
30174;DHT22;16985;50.814;8.530;2023-06-10T09:56:10;25.20;68.40
30174;DHT22;16985;50.814;8.530;2023-06-10T09:58:40;25.30;68.10
30174;DHT22;16985;50.814;8.530;2023-06-10T10:01:12;25.40;67.10
30174;DHT22;16985;50.814;8.530;2023-06-10T10:03:47;25.50;67.20
30174;DHT22;16985;50.814;8.530;2023-06-10T10:06:16;25.60;67.00
30174;DHT22;16985;50.814;8.530;2023-06-10T10:08:47;25.70;66.60
30174;DHT22;16985;50.814;8.530;2023-06-10T10:11:20;25.90;66.70
30174;DHT22;16985;50.814;8.530;2023-06-10T10:13:49;26.00;66.10
30174;DHT22;16985;50.814;8.530;2023-06-10T10:16:24;26.10;65.60
30174;DHT22;16985;50.814;8.530;2023-06-10T10:18:59;26.20;65.20
30174;DHT22;16985;50.814;8.530;2023-06-10T10:21:37;26.30;64.30
30174;DHT22;16985;50.814;8.530;2023-06-10T10:24:20;26.40;63.80
30174;DHT22;16985;50.814;8.530;2023-06-10T10:26:49;26.50;63.10
30174;DHT22;16985;50.814;8.530;2023-06-10T10:29:30;26.60;62.60
30174;DHT22;16985;50.814;8.530;2023-06-10T10:31:59;26.70;62.40
30174;DHT22;16985;50.814;8.530;2023-06-10T10:34:42;26.90;62.50
30174;DHT22;16985;50.814;8.530;2023-06-10T10:37:17;27.00;62.50
30174;DHT22;16985;50.814;8.530;2023-06-10T10:39:45;27.10;61.80
30174;DHT22;16985;50.814;8.530;2023-06-10T10:42:14;27.20;61.20
30174;DHT22;16985;50.814;8.530;2023-06-10T10:44:41;27.40;61.00
30174;DHT22;16985;50.814;8.530;2023-06-10T10:47:13;27.40;60.00
30174;DHT22;16985;50.814;8.530;2023-06-10T10:49:39;27.40;60.00
30174;DHT22;16985;50.814;8.530;2023-06-10T10:52:11;27.40;59.60
30174;DHT22;16985;50.814;8.530;2023-06-10T10:54:45;27.50;59.00
30174;DHT22;16985;50.814;8.530;2023-06-10T10:57:20;27.50;59.10
30174;DHT22;16985;50.814;8.530;2023-06-10T11:05:01;27.50;57.80
30174;DHT22;16985;50.814;8.530;2023-06-10T11:07:30;27.40;57.90
30174;DHT22;16985;50.814;8.530;2023-06-10T11:10:12;27.40;57.80
30174;DHT22;16985;50.814;8.530;2023-06-10T11:15:11;27.40;57.90
30174;DHT22;16985;50.814;8.530;2023-06-10T11:23:34;27.50;57.20
30174;DHT22;16985;50.814;8.530;2023-06-10T11:34:03;27.40;57.40
30174;DHT22;16985;50.814;8.530;2023-06-10T11:36:31;27.40;57.10
30174;DHT22;16985;50.814;8.530;2023-06-10T11:39:04;27.30;56.90
30174;DHT22;16985;50.814;8.530;2023-06-10T11:41:32;27.20;56.80
30174;DHT22;16985;50.814;8.530;2023-06-10T11:44:09;27.20;57.20
30174;DHT22;16985;50.814;8.530;2023-06-10T11:46:40;27.10;57.40
30174;DHT22;16985;50.814;8.530;2023-06-10T11:49:08;27.20;57.30
30174;DHT22;16985;50.814;8.530;2023-06-10T11:51:36;27.30;56.70
30174;DHT22;16985;50.814;8.530;2023-06-10T11:54:04;27.30;56.60
30174;DHT22;16985;50.814;8.530;2023-06-10T11:56:34;27.40;56.40
30174;DHT22;16985;50.814;8.530;2023-06-10T11:59:02;27.50;56.50
30174;DHT22;16985;50.814;8.530;2023-06-10T12:01:40;27.60;56.60
30174;DHT22;16985;50.814;8.530;2023-06-10T12:04:10;27.70;56.60
30174;DHT22;16985;50.814;8.530;2023-06-10T12:06:41;27.70;56.30
30174;DHT22;16985;50.814;8.530;2023-06-10T12:09:21;27.70;56.20
30174;DHT22;16985;50.814;8.530;2023-06-10T12:12:06;27.70;56.30
30174;DHT22;16985;50.814;8.530;2023-06-10T12:14:59;27.60;55.90
30174;DHT22;16985;50.814;8.530;2023-06-10T12:18:01;27.50;56.20
30174;DHT22;16985;50.814;8.530;2023-06-10T12:20:36;27.50;56.00
30174;DHT22;16985;50.814;8.530;2023-06-10T12:23:10;27.60;56.50
30174;DHT22;16985;50.814;8.530;2023-06-10T12:25:50;27.70;56.50
30174;DHT22;16985;50.814;8.530;2023-06-10T12:28:33;27.90;56.60
30174;DHT22;16985;50.814;8.530;2023-06-10T12:31:08;28.00;56.40
30174;DHT22;16985;50.814;8.530;2023-06-10T12:33:52;28.10;56.00
30174;DHT22;16985;50.814;8.530;2023-06-10T12:36:52;28.20;55.60
30174;DHT22;16985;50.814;8.530;2023-06-10T12:39:33;28.20;55.40
30174;DHT22;16985;50.814;8.530;2023-06-10T12:42:08;28.20;55.30
30174;DHT22;16985;50.814;8.530;2023-06-10T12:44:56;28.20;54.20
30174;DHT22;16985;50.814;8.530;2023-06-10T12:48:03;28.10;53.70
30174;DHT22;16985;50.814;8.530;2023-06-10T12:51:20;28.10;54.20
30174;DHT22;16985;50.814;8.530;2023-06-10T12:53:53;28.10;54.30
30174;DHT22;16985;50.814;8.530;2023-06-10T12:56:24;28.10;54.20
30174;DHT22;16985;50.814;8.530;2023-06-10T12:59:36;28.00;52.70
30174;DHT22;16985;50.814;8.530;2023-06-10T13:02:21;28.00;52.50
30174;DHT22;16985;50.814;8.530;2023-06-10T13:04:52;27.90;52.20
30174;DHT22;16985;50.814;8.530;2023-06-10T13:07:31;27.90;53.10
30174;DHT22;16985;50.814;8.530;2023-06-10T13:10:10;27.90;52.40
30174;DHT22;16985;50.814;8.530;2023-06-10T13:12:44;27.90;52.70
30174;DHT22;16985;50.814;8.530;2023-06-10T13:15:20;28.00;52.80
30174;DHT22;16985;50.814;8.530;2023-06-10T13:17:53;28.10;52.90
30174;DHT22;16985;50.814;8.530;2023-06-10T13:20:51;28.10;52.30
30174;DHT22;16985;50.814;8.530;2023-06-10T13:23:43;28.10;51.40
30174;DHT22;16985;50.814;8.530;2023-06-10T13:26:52;28.20;51.10
30174;DHT22;16985;50.814;8.530;2023-06-10T13:29:28;28.10;50.90
30174;DHT22;16985;50.814;8.530;2023-06-10T13:32:07;28.20;51.80
30174;DHT22;16985;50.814;8.530;2023-06-10T13:35:01;28.30;51.70
30174;DHT22;16985;50.814;8.530;2023-06-10T13:37:39;28.30;51.90
30174;DHT22;16985;50.814;8.530;2023-06-10T13:40:09;28.50;52.20
30174;DHT22;16985;50.814;8.530;2023-06-10T13:42:46;28.60;52.20
30174;DHT22;16985;50.814;8.530;2023-06-10T13:46:17;28.50;51.10
30174;DHT22;16985;50.814;8.530;2023-06-10T13:48:55;28.40;51.20
30174;DHT22;16985;50.814;8.530;2023-06-10T13:51:28;28.50;51.30
30174;DHT22;16985;50.814;8.530;2023-06-10T13:54:14;28.50;51.30
30174;DHT22;16985;50.814;8.530;2023-06-10T13:59:48;28.70;51.60
30174;DHT22;16985;50.814;8.530;2023-06-10T14:02:28;28.70;50.70
30174;DHT22;16985;50.814;8.530;2023-06-10T14:05:32;28.90;51.00
30174;DHT22;16985;50.814;8.530;2023-06-10T14:08:11;28.90;51.50
30174;DHT22;16985;50.814;8.530;2023-06-10T14:11:04;28.90;50.90
30174;DHT22;16985;50.814;8.530;2023-06-10T14:19:24;29.10;50.30
30174;DHT22;16985;50.814;8.530;2023-06-10T14:22:03;29.20;50.50
30174;DHT22;16985;50.814;8.530;2023-06-10T14:24:44;29.20;50.50
30174;DHT22;16985;50.814;8.530;2023-06-10T14:27:27;29.20;49.70
30174;DHT22;16985;50.814;8.530;2023-06-10T14:30:03;29.30;50.30
30174;DHT22;16985;50.814;8.530;2023-06-10T14:33:04;29.40;50.40
30174;DHT22;16985;50.814;8.530;2023-06-10T14:35:47;29.40;50.40
30174;DHT22;16985;50.814;8.530;2023-06-10T14:38:19;29.40;50.40
30174;DHT22;16985;50.814;8.530;2023-06-10T14:41:05;29.50;50.70
30174;DHT22;16985;50.814;8.530;2023-06-10T14:43:48;29.40;50.10
30174;DHT22;16985;50.814;8.530;2023-06-10T14:46:22;29.50;50.20
30174;DHT22;16985;50.814;8.530;2023-06-10T14:49:19;29.50;49.70
30174;DHT22;16985;50.814;8.530;2023-06-10T14:52:08;29.40;48.90
30174;DHT22;16985;50.814;8.530;2023-06-10T14:54:46;29.40;48.90
30174;DHT22;16985;50.814;8.530;2023-06-10T14:57:55;29.50;49.30
30174;DHT22;16985;50.814;8.530;2023-06-10T15:00:42;29.50;49.30
30174;DHT22;16985;50.814;8.530;2023-06-10T15:03:14;29.50;49.30
30174;DHT22;16985;50.814;8.530;2023-06-10T15:05:52;29.50;48.60
30174;DHT22;16985;50.814;8.530;2023-06-10T15:08:37;29.50;48.30
30174;DHT22;16985;50.814;8.530;2023-06-10T15:11:16;29.40;48.40
30174;DHT22;16985;50.814;8.530;2023-06-10T15:13:50;29.30;48.80
30174;DHT22;16985;50.814;8.530;2023-06-10T15:16:40;29.30;49.30
30174;DHT22;16985;50.814;8.530;2023-06-10T15:19:13;29.20;49.80
30174;DHT22;16985;50.814;8.530;2023-06-10T15:21:49;29.10;49.50
30174;DHT22;16985;50.814;8.530;2023-06-10T15:24:43;29.10;49.70
30174;DHT22;16985;50.814;8.530;2023-06-10T15:27:25;29.10;50.10
30174;DHT22;16985;50.814;8.530;2023-06-10T15:30:05;29.10;50.00
30174;DHT22;16985;50.814;8.530;2023-06-10T15:32:35;29.10;50.30
30174;DHT22;16985;50.814;8.530;2023-06-10T15:35:19;29.00;50.00
30174;DHT22;16985;50.814;8.530;2023-06-10T15:37:48;29.00;50.30
30174;DHT22;16985;50.814;8.530;2023-06-10T15:40:16;29.00;50.30
30174;DHT22;16985;50.814;8.530;2023-06-10T15:42:56;28.90;49.70
30174;DHT22;16985;50.814;8.530;2023-06-10T15:45:25;28.80;49.90
30174;DHT22;16985;50.814;8.530;2023-06-10T15:48:04;28.90;50.00
30174;DHT22;16985;50.814;8.530;2023-06-10T15:50:36;28.80;50.50
30174;DHT22;16985;50.814;8.530;2023-06-10T15:53:09;28.80;51.00
30174;DHT22;16985;50.814;8.530;2023-06-10T15:56:16;28.70;51.20
30174;DHT22;16985;50.814;8.530;2023-06-10T15:58:54;28.60;50.60
30174;DHT22;16985;50.814;8.530;2023-06-10T16:01:19;28.50;50.80
30174;DHT22;16985;50.814;8.530;2023-06-10T16:03:45;28.50;50.00
30174;DHT22;16985;50.814;8.530;2023-06-10T16:06:11;28.50;50.00
30174;DHT22;16985;50.814;8.530;2023-06-10T16:08:37;28.30;50.10
30174;DHT22;16985;50.814;8.530;2023-06-10T16:11:03;28.30;50.70
30174;DHT22;16985;50.814;8.530;2023-06-10T16:13:29;28.20;51.20
30174;DHT22;16985;50.814;8.530;2023-06-10T16:15:58;28.20;51.70
30174;DHT22;16985;50.814;8.530;2023-06-10T16:18:24;28.10;52.00
30174;DHT22;16985;50.814;8.530;2023-06-10T16:20:50;28.00;52.00
30174;DHT22;16985;50.814;8.530;2023-06-10T16:23:17;27.90;52.50
30174;DHT22;16985;50.814;8.530;2023-06-10T16:25:43;27.80;52.90
30174;DHT22;16985;50.814;8.530;2023-06-10T16:28:09;27.70;53.10
30174;DHT22;16985;50.814;8.530;2023-06-10T16:30:34;27.70;53.50